Gladstone, NM

4:56 PM MDT on July 29, 2014 (GMT -0600)
Raton Municipal-Crews (KRTN) Elev 6352 ft | 36.74 °N, 104.50 °W | Change Station
Active Advisory: Flash Flood Watch Active Notice: Public Information Statement

Current weather conditions updated 3 minutes ago

Light Rain
Light Rain
68 °F
Feels Like 68 °F
N
7
Wind Variable Wind from West

Tomorrow is forecast to be Cooler than today. Thunderstorms developing in the afternoon.

Today
High -- | Low -- °F
--% Chance of Precip.
Yesterday
High -- | Low -- °F
Precip. -- in
6:00 AM 8:03 PM
Waxing Crescent, 8% visible
Pressure 30.01 in
Visibility 10.0 miles
Clouds Overcast 10000 ft
Dew Point 63 °F
Humidity 84%
Rainfall 0.05 in
Snow Depth Not available.
UV 2 out of 12
Pollen 4.90 out of 12
Air Quality Not available.
Flu Activity Not available.
METAR KRTN 292253Z AUTO 26006KT 10SM -RA OVC100 20/17 A3024 RMK AO2 SLP163 P0003 T02000172 TSNO

More Conditions Fewer Conditions

Pressure 30.01 in
Visibility 10.0 miles
Clouds Overcast 10000 ft
Dew Point 63 °F
Humidity 84%
Rainfall 0.05 in
Snow Depth Not available.
UV 2 out of 12
Pollen 4.90 out of 12
Air Quality Not available.
Flu Activity Not available.
METAR KRTN 292253Z AUTO 26006KT 10SM -RA OVC100 20/17 A3024 RMK AO2 SLP163 P0003 T02000172 TSNO

More Conditions Fewer Conditions

10-Day Weather Forecast

Almanac

Astronomy

Jul. 29, 2014 Rise Set
Actual Time 6:00 AM MDT 8:03 PM MDT
Civil Twilight 5:31 AM MDT 8:32 PM MDT
Nautical Twilight 4:56 AM MDT 9:07 PM MDT
Astronomical Twilight 4:19 AM MDT 9:44 PM MDT
Moon 8:32 AM MDT 9:24 PM MDT
Length of Visible Light 15h 00m
Length of Day
14h 03m
Tomorrow will be 1m 40s shorter.
Waxing Crescent, 8% of the Moon is Illuminated
Today
Waxing Crescent
Aug 3
First Quarter
Aug 10
Full
Aug 17
Last Quarter
Aug 25
New

Today's Extremes

State Highs State Lows

Community

WunderPhotos

Upload Photos

1,738,909 photos uploaded!

Nearby

Snow Depth

Station Depth Elevation
Tolby 0 in 10180 ft
Red River Pass #2 0 in 9850 ft
North Costilla 0 in 10600 ft
Gallegos Peak 0 in 9800 ft
Wesner Springs 2 in 11120 ft

Earthquake Activity

City Distance Mag. Time & Date
No recent earthquake activity has been reported nearby.
Minimum magnitude displayed is 2.5.

Coastal Water Temperatures

Place Temperature
No Stations Reporting

Nearby Weather Stations

There are no personal weather stations in this area.